createdAt,value
2018-11-27T00:00:26.230Z,7.27
2018-11-27T00:03:10.413Z,5.87
2018-11-27T00:05:39.225Z,5.57
2018-11-27T00:08:08.328Z,5.30
2018-11-27T00:10:39.263Z,4.67
2018-11-27T00:13:08.887Z,6.40
2018-11-27T00:15:37.544Z,5.00
2018-11-27T00:18:06.339Z,6.20
2018-11-27T00:20:34.965Z,5.73
2018-11-27T00:23:03.752Z,6.63
2018-11-27T00:25:32.401Z,6.13
2018-11-27T00:28:00.990Z,6.77
2018-11-27T00:30:29.605Z,6.80
2018-11-27T00:32:58.191Z,7.07
2018-11-27T00:35:26.811Z,5.20
2018-11-27T00:37:55.431Z,4.93
2018-11-27T00:40:24.588Z,5.00
2018-11-27T00:42:53.215Z,4.90
2018-11-27T00:45:22.038Z,4.43
2018-11-27T00:47:51.360Z,5.93
2018-11-27T00:50:21.307Z,6.33
2018-11-27T00:52:49.988Z,6.17
2018-11-27T00:55:19.358Z,6.03
2018-11-27T00:57:49.318Z,6.63
2018-11-27T01:00:20.038Z,5.80
2018-11-27T01:02:48.764Z,7.70
2018-11-27T01:05:18.753Z,5.17
2018-11-27T01:07:47.719Z,7.43
2018-11-27T01:10:21.022Z,5.67
2018-11-27T01:12:49.654Z,6.40
2018-11-27T01:15:18.400Z,5.53
2018-11-27T01:17:51.512Z,5.60
2018-11-27T01:20:21.149Z,5.80
2018-11-27T01:22:49.809Z,6.87
2018-11-27T01:25:18.471Z,6.00
2018-11-27T01:27:47.088Z,5.90
2018-11-27T01:30:16.894Z,5.57
2018-11-27T01:32:45.637Z,5.63
2018-11-27T01:35:18.243Z,5.40
2018-11-27T01:37:47.691Z,6.37
2018-11-27T01:40:18.148Z,6.03
2018-11-27T01:42:47.807Z,6.03
2018-11-27T01:45:17.587Z,6.00
2018-11-27T01:47:46.309Z,6.63
2018-11-27T01:50:15.806Z,6.13
2018-11-27T01:52:44.530Z,5.63
2018-11-27T01:55:15.075Z,6.20
2018-11-27T01:57:43.752Z,7.77
2018-11-27T02:00:28.272Z,6.97
2018-11-27T02:02:57.554Z,5.90
2018-11-27T02:05:26.773Z,6.10
2018-11-27T02:07:55.429Z,8.50
2018-11-27T02:10:24.109Z,7.90
2018-11-27T02:12:53.843Z,7.40
2018-11-27T02:15:25.468Z,5.47
2018-11-27T02:17:54.404Z,6.97
2018-11-27T02:20:23.010Z,5.80
2018-11-27T02:22:51.617Z,5.87
2018-11-27T02:25:22.447Z,5.90
2018-11-27T02:27:51.210Z,7.27
2018-11-27T02:30:21.553Z,8.60
2018-11-27T02:32:50.276Z,8.30
2018-11-27T02:35:21.812Z,5.93
2018-11-27T02:37:52.490Z,7.07
2018-11-27T02:40:21.130Z,6.33
2018-11-27T02:42:49.721Z,5.77
2018-11-27T02:45:20.430Z,6.13
2018-11-27T02:47:49.931Z,5.10
2018-11-27T02:50:19.577Z,6.33
2018-11-27T02:52:48.167Z,5.67
2018-11-27T02:55:18.885Z,6.93
2018-11-27T02:57:47.596Z,6.10
2018-11-27T03:00:18.249Z,8.47
2018-11-27T03:02:46.920Z,7.63
2018-11-27T03:05:21.743Z,5.83
2018-11-27T03:07:50.345Z,6.50
2018-11-27T03:10:18.963Z,6.40
2018-11-27T03:12:47.562Z,6.20
2018-11-27T03:15:17.269Z,4.63
2018-11-27T03:17:45.887Z,5.03
2018-11-27T03:20:16.515Z,6.37
2018-11-27T03:22:45.156Z,6.70
2018-11-27T03:25:16.715Z,5.63
2018-11-27T03:27:46.360Z,6.27
2018-11-27T03:30:16.960Z,5.13
2018-11-27T03:32:45.798Z,6.80
2018-11-27T03:35:16.190Z,5.17
2018-11-27T03:37:45.425Z,6.97
2018-11-27T03:40:18.173Z,4.43
2018-11-27T03:42:46.800Z,4.63
2018-11-27T03:45:16.073Z,5.37
2018-11-27T03:47:44.730Z,5.03
2018-11-27T03:50:20.386Z,5.83
2018-11-27T03:52:48.961Z,5.90
2018-11-27T03:55:17.649Z,7.77
2018-11-27T03:57:46.224Z,5.00
2018-11-27T04:00:18.961Z,7.37
2018-11-27T04:02:49.865Z,6.40
2018-11-27T04:05:18.436Z,6.83
2018-11-27T04:07:47.052Z,5.93
2018-11-27T04:10:17.760Z,6.63
2018-11-27T04:12:46.380Z,6.03
2018-11-27T04:15:15.049Z,5.57
2018-11-27T04:17:43.664Z,6.10
2018-11-27T04:20:12.996Z,6.17
2018-11-27T04:22:42.420Z,8.43
2018-11-27T04:25:13.111Z,6.47
2018-11-27T04:27:41.754Z,7.40
2018-11-27T04:30:12.208Z,6.80
2018-11-27T04:32:40.894Z,8.23
2018-11-27T04:35:11.026Z,8.00
2018-11-27T04:37:39.644Z,6.93
2018-11-27T04:40:10.751Z,6.97
2018-11-27T04:42:39.379Z,6.97
2018-11-27T04:45:12.602Z,7.37
2018-11-27T04:47:41.167Z,7.97
2018-11-27T04:50:11.947Z,6.17
2018-11-27T04:52:40.539Z,5.43
2018-11-27T04:55:25.637Z,7.17
2018-11-27T04:57:54.228Z,9.03
2018-11-27T05:00:23.872Z,7.03
2018-11-27T05:02:52.487Z,8.37
2018-11-27T05:05:21.177Z,6.93
2018-11-27T05:07:49.855Z,9.73
2018-11-27T05:10:21.053Z,6.93
2018-11-27T05:12:49.715Z,7.30
2018-11-27T05:15:20.441Z,7.10
2018-11-27T05:17:51.010Z,8.50
2018-11-27T05:20:19.649Z,7.53
2018-11-27T05:22:48.234Z,7.87
2018-11-27T05:25:17.792Z,9.63
2018-11-27T05:27:49.340Z,8.50
2018-11-27T05:30:21.005Z,9.33
2018-11-27T05:32:49.623Z,8.60
2018-11-27T05:35:20.225Z,8.17
2018-11-27T05:37:49.606Z,8.37
2018-11-27T05:40:21.567Z,10.13
2018-11-27T05:42:52.507Z,8.30
2018-11-27T05:45:22.046Z,11.60
2018-11-27T05:47:50.670Z,10.60
2018-11-27T05:50:19.514Z,7.97
2018-11-27T05:52:48.372Z,9.37
2018-11-27T05:55:17.382Z,8.30
2018-11-27T05:57:53.884Z,8.80
2018-11-27T06:00:23.945Z,9.20
2018-11-27T06:02:54.545Z,9.33
2018-11-27T06:05:23.734Z,9.57
2018-11-27T06:07:52.326Z,9.80
2018-11-27T06:10:22.013Z,10.50
2018-11-27T06:12:50.716Z,9.87
2018-11-27T06:15:21.545Z,11.70
2018-11-27T06:17:52.338Z,10.07
2018-11-27T06:20:21.776Z,9.27
2018-11-27T06:22:51.471Z,11.93
2018-11-27T06:25:22.303Z,10.17
2018-11-27T06:27:57.190Z,8.80
2018-11-27T06:30:26.850Z,10.50
2018-11-27T06:32:55.517Z,12.50
2018-11-27T06:35:34.957Z,10.37
2018-11-27T06:38:04.602Z,12.10
2018-11-27T06:40:33.248Z,9.93
2018-11-27T06:43:01.865Z,9.63
2018-11-27T06:45:30.514Z,10.67
2018-11-27T06:47:59.118Z,13.93
2018-11-27T06:50:30.579Z,9.47
2018-11-27T06:52:59.210Z,9.67
2018-11-27T06:55:27.800Z,9.10
2018-11-27T06:57:56.402Z,10.57
2018-11-27T07:00:29.146Z,12.33
2018-11-27T07:02:58.529Z,12.73
2018-11-27T07:05:27.219Z,10.33
2018-11-27T07:07:55.888Z,19.60
2018-11-27T07:10:30.816Z,11.87
2018-11-27T07:13:06.414Z,11.57
2018-11-27T07:15:35.060Z,11.53
2018-11-27T07:18:03.796Z,14.13
2018-11-27T07:20:32.422Z,11.93
2018-11-27T07:23:01.053Z,11.03
2018-11-27T07:25:29.656Z,14.33
2018-11-27T07:27:58.238Z,13.20
2018-11-27T07:30:26.962Z,14.50
2018-11-27T07:32:55.560Z,11.00
2018-11-27T07:35:24.253Z,15.90
2018-11-27T07:37:53.207Z,11.90
2018-11-27T07:40:23.963Z,12.20
2018-11-27T07:42:54.777Z,15.83
2018-11-27T07:45:24.151Z,13.90
2018-11-27T07:47:53.693Z,12.60
2018-11-27T07:50:22.341Z,16.60
2018-11-27T07:52:50.995Z,12.93
2018-11-27T07:55:21.771Z,13.30
2018-11-27T07:57:51.284Z,12.37
2018-11-27T08:00:23.540Z,13.33
2018-11-27T08:02:53.952Z,14.80
2018-11-27T08:05:25.824Z,15.47
2018-11-27T08:07:55.495Z,16.90
2018-11-27T08:10:25.304Z,16.10
2018-11-27T08:12:55.129Z,15.60
2018-11-27T08:15:25.796Z,15.00
2018-11-27T08:17:54.384Z,13.87
2018-11-27T08:20:25.873Z,17.43
2018-11-27T08:22:54.521Z,16.20
2018-11-27T08:25:23.186Z,15.90
2018-11-27T08:27:51.799Z,17.37
2018-11-27T08:30:21.160Z,17.57
2018-11-27T08:32:49.916Z,19.20
2018-11-27T08:35:22.654Z,20.80
2018-11-27T08:37:52.277Z,19.83
2018-11-27T08:40:22.151Z,19.37
2018-11-27T08:42:50.865Z,20.23
2018-11-27T08:45:20.589Z,17.23
2018-11-27T08:47:50.172Z,20.23
2018-11-27T08:50:20.085Z,20.70
2018-11-27T08:53:00.776Z,22.87
2018-11-27T08:55:32.219Z,19.83
2018-11-27T08:58:01.665Z,23.03
2018-11-27T09:00:30.279Z,22.53
2018-11-27T09:02:58.905Z,22.07
2018-11-27T09:05:27.532Z,23.07
2018-11-27T09:07:56.172Z,22.27
2018-11-27T09:10:25.763Z,22.60
2018-11-27T09:12:54.647Z,19.70
2018-11-27T09:15:23.861Z,20.43
2018-11-27T09:18:34.057Z,21.13
2018-11-27T09:21:02.685Z,20.47
2018-11-27T09:23:31.302Z,18.57
2018-11-27T09:25:59.986Z,23.13
2018-11-27T09:28:28.648Z,20.53
2018-11-27T09:30:57.297Z,21.77
2018-11-27T09:33:25.898Z,20.83
2018-11-27T09:35:54.489Z,24.37
2018-11-27T09:38:23.135Z,21.47
2018-11-27T09:40:51.803Z,20.53
2018-11-27T09:43:20.438Z,18.73
2018-11-27T09:45:49.710Z,20.47
2018-11-27T09:48:18.340Z,20.33
2018-11-27T09:50:47.011Z,20.57
2018-11-27T09:53:16.244Z,23.17
2018-11-27T09:55:44.914Z,22.13
2018-11-27T09:58:13.630Z,23.23
2018-11-27T10:00:42.289Z,20.03
2018-11-27T10:03:12.676Z,25.73
2018-11-27T10:05:41.334Z,24.20
2018-11-27T10:08:10.234Z,25.27
2018-11-27T10:10:38.888Z,26.10
2018-11-27T10:13:08.132Z,22.80
2018-11-27T10:15:37.290Z,24.83
2018-11-27T10:18:06.205Z,24.97
2018-11-27T10:20:37.111Z,24.10
2018-11-27T10:23:08.985Z,25.17
2018-11-27T10:25:37.650Z,23.97
2018-11-27T10:28:06.743Z,25.73
2018-11-27T10:30:35.511Z,25.17
2018-11-27T10:33:05.302Z,23.90
2018-11-27T10:35:35.929Z,24.10
2018-11-27T10:38:04.643Z,22.37
2018-11-27T10:40:33.318Z,22.83
2018-11-27T10:43:01.972Z,24.47
2018-11-27T10:45:34.625Z,22.47
2018-11-27T10:48:03.236Z,20.67
2018-11-27T10:50:31.875Z,27.20
2018-11-27T10:53:10.326Z,23.67
2018-11-27T10:55:52.207Z,25.13
2018-11-27T10:58:29.881Z,24.27
2018-11-27T11:01:15.384Z,25.87
2018-11-27T11:03:53.359Z,25.13
2018-11-27T11:06:27.684Z,24.53
2018-11-27T11:09:11.818Z,25.30
2018-11-27T11:11:47.294Z,23.80
2018-11-27T11:14:16.176Z,22.67
2018-11-27T11:16:44.803Z,24.60
2018-11-27T11:19:18.266Z,24.50
2018-11-27T11:21:42.130Z,22.53
2018-11-27T11:24:10.704Z,27.37
2018-11-27T11:26:39.343Z,24.40
2018-11-27T11:29:07.986Z,25.70
2018-11-27T11:31:36.683Z,25.37
2018-11-27T11:34:05.812Z,23.50
2018-11-27T11:36:34.452Z,25.37
2018-11-27T11:39:03.222Z,24.47
2018-11-27T11:41:31.844Z,25.53
2018-11-27T11:44:00.459Z,25.93
2018-11-27T11:46:29.134Z,23.97
2018-11-27T11:49:01.909Z,24.57
2018-11-27T11:51:26.541Z,20.93
2018-11-27T11:53:55.180Z,29.20
2018-11-27T11:56:23.839Z,22.57
2018-11-27T11:58:52.485Z,22.27
2018-11-27T12:01:21.140Z,24.97
2018-11-27T12:03:53.188Z,26.53
2018-11-27T12:06:21.869Z,24.47
2018-11-27T12:08:50.551Z,25.07
2018-11-27T12:11:19.212Z,24.60
2018-11-27T12:13:47.905Z,23.87
2018-11-27T12:16:16.606Z,22.70
2018-11-27T12:18:45.277Z,24.67
2018-11-27T12:21:13.954Z,22.63
2018-11-27T12:23:42.589Z,22.20
2018-11-27T12:26:11.208Z,22.90
2018-11-27T12:28:39.832Z,22.40
2018-11-27T12:31:08.593Z,19.83
2018-11-27T12:33:37.238Z,21.77
2018-11-27T12:36:05.917Z,22.53
2018-11-27T12:38:34.543Z,25.07
2018-11-27T12:41:03.157Z,19.13
2018-11-27T12:43:31.816Z,21.03
2018-11-27T12:46:00.445Z,23.97
2018-11-27T12:48:29.242Z,21.17
2018-11-27T12:50:57.958Z,17.97
2018-11-27T12:53:26.648Z,20.30
2018-11-27T12:55:55.269Z,19.90
2018-11-27T12:58:24.016Z,20.23
2018-11-27T13:00:52.659Z,20.00
2018-11-27T13:03:21.347Z,19.73
2018-11-27T13:05:50.060Z,17.67
2018-11-27T13:08:20.933Z,18.03
2018-11-27T13:10:49.661Z,16.80
2018-11-27T13:13:18.332Z,17.23
2018-11-27T13:15:48.010Z,16.53
2018-11-27T13:18:18.236Z,19.07
2018-11-27T13:20:46.972Z,16.40
2018-11-27T13:23:15.662Z,17.87
2018-11-27T13:25:44.372Z,16.40
2018-11-27T13:28:14.022Z,14.60
2018-11-27T13:30:53.567Z,17.37
2018-11-27T13:33:24.877Z,17.07
2018-11-27T13:35:53.520Z,16.30
2018-11-27T13:38:22.235Z,17.63
2018-11-27T13:40:50.923Z,14.30
2018-11-27T13:43:24.996Z,16.50
2018-11-27T13:45:54.048Z,18.23
2018-11-27T13:48:22.738Z,15.33
2018-11-27T13:50:51.462Z,18.47
2018-11-27T13:53:20.210Z,19.30
2018-11-27T13:55:48.967Z,18.47
2018-11-27T13:58:17.667Z,17.77
2018-11-27T14:00:46.464Z,16.73
2018-11-27T14:03:15.178Z,19.43
2018-11-27T14:05:43.902Z,17.00
2018-11-27T14:08:12.953Z,17.70
2018-11-27T14:10:41.885Z,16.37
2018-11-27T14:26:46.037Z,18.23
2018-11-27T14:29:15.005Z,17.27
2018-11-27T14:31:43.786Z,16.93
2018-11-27T14:34:12.492Z,14.80
2018-11-27T14:36:41.141Z,16.33
2018-11-27T14:39:10.306Z,18.67
2018-11-27T14:41:38.948Z,16.10
2018-11-27T14:44:07.656Z,18.10
2018-11-27T14:46:36.352Z,15.40
2018-11-27T14:49:05.150Z,16.93
2018-11-27T14:51:33.866Z,18.73
2018-11-27T14:54:02.575Z,15.43
2018-11-27T14:56:31.383Z,15.83
2018-11-27T14:59:00.146Z,15.27
2018-11-27T15:01:28.848Z,16.03
2018-11-27T15:03:57.612Z,16.77
2018-11-27T15:06:26.405Z,15.23
2018-11-27T15:08:55.112Z,14.27
2018-11-27T15:11:23.796Z,16.73
2018-11-27T15:13:53.942Z,14.70
2018-11-27T15:16:22.603Z,14.63
2018-11-27T15:18:51.389Z,18.33
2018-11-27T15:21:20.424Z,17.93
2018-11-27T15:23:49.113Z,14.60
2018-11-27T15:26:17.926Z,16.60
2018-11-27T15:28:46.592Z,14.03
2018-11-27T15:31:15.260Z,14.40
2018-11-27T15:33:43.974Z,15.40
2018-11-27T15:36:12.652Z,16.23
2018-11-27T15:38:41.393Z,16.10
2018-11-27T15:41:10.030Z,13.53
2018-11-27T15:43:38.808Z,13.97
2018-11-27T15:46:07.494Z,16.80
2018-11-27T15:48:36.167Z,15.40
2018-11-27T15:51:04.945Z,15.57
2018-11-27T15:53:33.586Z,16.00
2018-11-27T15:56:02.221Z,14.83
2018-11-27T15:58:30.900Z,11.00
2018-11-27T16:00:59.591Z,16.63
2018-11-27T16:03:28.281Z,16.20
2018-11-27T16:05:57.054Z,17.20
2018-11-27T16:08:25.711Z,15.53
2018-11-27T16:10:54.418Z,15.70
2018-11-27T16:13:23.075Z,16.47
2018-11-27T16:15:51.775Z,17.97
2018-11-27T16:18:20.793Z,14.43
2018-11-27T16:20:49.477Z,19.30
2018-11-27T16:23:18.140Z,15.13
2018-11-27T16:25:46.871Z,14.13
2018-11-27T16:28:15.511Z,14.33
2018-11-27T16:30:44.151Z,16.47
2018-11-27T16:33:12.853Z,14.13
2018-11-27T16:35:41.518Z,16.20
2018-11-27T16:38:11.365Z,16.13
2018-11-27T16:40:40.430Z,15.33
2018-11-27T16:43:09.197Z,15.97
2018-11-27T16:45:37.881Z,16.57
2018-11-27T16:48:06.798Z,16.67
2018-11-27T16:50:35.503Z,15.73
2018-11-27T16:53:04.152Z,16.47
2018-11-27T16:55:33.156Z,18.87
2018-11-27T16:58:01.904Z,20.53
2018-11-27T17:00:32.657Z,17.57
2018-11-27T17:03:02.746Z,27.57
2018-11-27T17:05:34.309Z,17.27
2018-11-27T17:08:03.339Z,15.97
2018-11-27T17:10:32.210Z,15.13
2018-11-27T17:13:00.999Z,17.43
2018-11-27T17:15:29.875Z,16.37
2018-11-27T17:17:58.729Z,18.60
2018-11-27T17:20:29.478Z,17.33
2018-11-27T17:23:00.664Z,21.80
2018-11-27T17:25:29.696Z,25.90
2018-11-27T17:28:03.322Z,28.53
2018-11-27T17:30:44.256Z,26.17
2018-11-27T17:33:15.349Z,26.07
2018-11-27T17:35:44.306Z,29.20
2018-11-27T17:38:13.060Z,24.30
2018-11-27T17:40:41.761Z,20.10
2018-11-27T17:43:10.477Z,22.47
2018-11-27T17:45:39.221Z,26.17
2018-11-27T17:48:08.582Z,21.33
2018-11-27T17:50:37.327Z,16.60
2018-11-27T17:53:06.542Z,18.93
2018-11-27T17:55:35.265Z,16.90
2018-11-27T17:58:03.943Z,19.30
2018-11-27T18:00:32.620Z,19.40
2018-11-27T18:03:03.330Z,17.60
2018-11-27T18:05:32.261Z,18.07
2018-11-27T18:08:00.907Z,18.83
2018-11-27T18:10:29.607Z,14.30
2018-11-27T18:12:58.233Z,15.40
2018-11-27T18:15:26.869Z,19.93
2018-11-27T18:17:55.503Z,19.87
2018-11-27T18:20:24.228Z,17.50
2018-11-27T18:22:52.959Z,18.50
2018-11-27T18:25:21.666Z,15.50
2018-11-27T18:27:50.745Z,17.47
2018-11-27T18:30:20.914Z,18.60
2018-11-27T18:32:49.653Z,21.23
2018-11-27T18:35:21.668Z,20.17
2018-11-27T18:37:51.278Z,17.37
2018-11-27T18:40:20.156Z,18.40
2018-11-27T18:42:49.219Z,20.90
2018-11-27T18:45:22.645Z,20.13
2018-11-27T18:47:51.409Z,21.63
2018-11-27T18:50:20.411Z,19.60
2018-11-27T18:52:49.296Z,22.43
2018-11-27T18:55:18.032Z,23.00
2018-11-27T18:57:51.074Z,20.83
2018-11-27T19:00:23.659Z,24.27
2018-11-27T19:02:52.460Z,21.10
2018-11-27T19:05:21.193Z,22.77
2018-11-27T19:07:49.933Z,24.87
2018-11-27T19:10:19.836Z,21.13
2018-11-27T19:12:50.048Z,18.60
2018-11-27T19:15:23.340Z,21.10
2018-11-27T19:17:54.026Z,17.40
2018-11-27T19:20:22.798Z,15.73
2018-11-27T19:22:51.440Z,19.03
2018-11-27T19:25:20.117Z,16.93
2018-11-27T19:27:48.904Z,16.43
2018-11-27T19:30:18.725Z,19.83
2018-11-27T19:32:47.448Z,18.77
2018-11-27T19:35:17.357Z,19.57
2018-11-27T19:37:46.838Z,25.17
2018-11-27T19:40:16.730Z,22.17
2018-11-27T19:42:45.426Z,22.47
2018-11-27T19:45:23.998Z,20.40
2018-11-27T19:47:52.877Z,24.37
2018-11-27T19:50:21.715Z,21.47
2018-11-27T19:52:51.955Z,19.40
2018-11-27T19:55:20.614Z,21.90
2018-11-27T19:57:49.346Z,21.70
2018-11-27T20:00:25.150Z,17.73
2018-11-27T20:02:54.007Z,19.83
2018-11-27T20:05:25.006Z,21.17
2018-11-27T20:07:53.721Z,19.37
2018-11-27T20:10:22.489Z,18.37
2018-11-27T20:12:51.208Z,19.43
2018-11-27T20:15:22.920Z,21.57
2018-11-27T20:17:52.267Z,16.47
2018-11-27T20:20:23.072Z,20.17
2018-11-27T20:22:52.445Z,20.20
2018-11-27T20:25:22.188Z,20.20
2018-11-27T20:27:51.083Z,23.20
2018-11-27T20:30:23.375Z,19.23
2018-11-27T20:32:56.208Z,18.07
2018-11-27T20:35:25.185Z,19.63
2018-11-27T20:37:54.716Z,17.13
2018-11-27T20:40:23.608Z,21.87
2018-11-27T20:42:52.361Z,19.87
2018-11-27T20:45:22.644Z,17.50
2018-11-27T20:47:53.072Z,19.67
2018-11-27T20:50:22.663Z,19.47
2018-11-27T20:52:51.458Z,21.13
2018-11-27T20:55:21.067Z,19.23
2018-11-27T20:57:56.046Z,19.57
2018-11-27T21:00:32.006Z,21.17
2018-11-27T21:03:01.601Z,20.47
2018-11-27T21:05:30.269Z,18.67
2018-11-27T21:07:58.931Z,17.37
2018-11-27T21:10:27.667Z,22.57
2018-11-27T21:12:56.312Z,19.93
2018-11-27T21:15:25.892Z,21.77
2018-11-27T21:17:54.682Z,18.53
2018-11-27T21:20:23.363Z,16.77
2018-11-27T21:22:52.089Z,20.83
2018-11-27T21:25:23.819Z,20.53
2018-11-27T21:28:01.172Z,17.60
2018-11-27T21:30:30.136Z,19.57
2018-11-27T21:32:58.797Z,18.27
2018-11-27T21:35:27.575Z,21.67
2018-11-27T21:37:56.239Z,18.30
2018-11-27T21:40:24.993Z,17.50
2018-11-27T21:42:53.828Z,21.13
2018-11-27T21:45:23.892Z,21.10
2018-11-27T21:47:53.296Z,19.63
2018-11-27T21:50:27.955Z,21.57
2018-11-27T21:52:57.201Z,22.10
2018-11-27T21:55:25.916Z,20.97
2018-11-27T21:57:54.577Z,18.47
2018-11-27T22:00:24.730Z,23.77
2018-11-27T22:02:53.507Z,22.97
2018-11-27T22:05:22.200Z,21.47
2018-11-27T22:07:50.938Z,21.03
2018-11-27T22:10:21.096Z,21.30
2018-11-27T22:12:52.557Z,23.23
2018-11-27T22:15:23.552Z,26.37
2018-11-27T22:17:52.207Z,20.23
2018-11-27T22:20:21.553Z,19.80
2018-11-27T22:22:49.672Z,19.47
2018-11-27T22:25:18.362Z,21.77
2018-11-27T22:27:47.056Z,24.20
2018-11-27T22:30:17.302Z,21.83
2018-11-27T22:32:48.120Z,20.33
2018-11-27T22:35:16.906Z,20.90
2018-11-27T22:37:45.578Z,24.67
2018-11-27T22:40:22.187Z,20.60
2018-11-27T22:42:51.607Z,19.13
2018-11-27T22:45:27.598Z,22.57
2018-11-27T22:47:56.238Z,19.53
2018-11-27T22:50:24.902Z,21.57
2018-11-27T22:52:53.609Z,22.13
2018-11-27T22:55:22.282Z,22.13
2018-11-27T22:57:50.921Z,19.80
2018-11-27T23:00:32.189Z,23.70
2018-11-27T23:03:00.923Z,22.70
2018-11-27T23:05:29.634Z,21.07
2018-11-27T23:07:58.392Z,22.40
2018-11-27T23:10:28.567Z,22.03
2018-11-27T23:12:57.254Z,22.83
2018-11-27T23:15:25.981Z,24.83
2018-11-27T23:17:54.594Z,19.50
2018-11-27T23:20:23.282Z,22.20
2018-11-27T23:22:51.895Z,25.83
2018-11-27T23:25:20.520Z,24.17
2018-11-27T23:27:49.210Z,21.93
2018-11-27T23:30:19.372Z,22.40
2018-11-27T23:32:48.281Z,20.47
2018-11-27T23:35:17.018Z,19.37
2018-11-27T23:37:45.718Z,25.53
2018-11-27T23:40:15.764Z,27.77
2018-11-27T23:42:44.839Z,21.03
2018-11-27T23:45:15.454Z,20.47
2018-11-27T23:47:44.127Z,21.90
2018-11-27T23:50:14.065Z,26.27
2018-11-27T23:52:42.932Z,27.13
2018-11-27T23:55:12.467Z,23.67
2018-11-27T23:57:41.396Z,21.53
